Time;durP1;ratioP1;P1;durP2;ratioP2;P2;SDS_P1;SDS_P2;PMS_P1;PMS_P2;Temp;Humidity;BMP_temperature;BMP_pressure;BME280_temperature;BME280_humidity;BME280_pressure;Samples;Min_cycle;Max_cycle;Signal;HPM_P1;HPM_P2
2023/05/10 00:01:47;;;;;;;3.55;2.20;;;14.90;99.90;;;;;;5100280;28;20095;-75
2023/05/10 00:04:13;;;;;;;5.07;2.17;;;14.90;99.90;;;;;;5099806;28;20055;-75
2023/05/10 00:06:39;;;;;;;3.83;2.25;;;14.90;99.90;;;;;;5139404;22;20121;-72
2023/05/10 00:09:05;;;;;;;4.13;1.85;;;14.90;99.90;;;;;;5140845;27;20015;-72
2023/05/10 00:11:30;;;;;;;3.17;1.70;;;14.80;99.90;;;;;;5140419;27;20019;-74
2023/05/10 00:13:56;;;;;;;1.80;1.30;;;14.80;99.90;;;;;;5140402;27;20028;-74
2023/05/10 00:16:21;;;;;;;1.10;0.90;;;14.80;99.90;;;;;;5141052;27;20026;-74
2023/05/10 00:18:47;;;;;;;1.60;1.27;;;14.80;99.90;;;;;;5140195;27;20030;-74
2023/05/10 00:21:12;;;;;;;3.30;1.25;;;14.70;99.90;;;;;;5140499;27;20071;-74
2023/05/10 00:23:38;;;;;;;3.72;1.13;;;14.60;99.90;;;;;;5140332;27;20019;-72
2023/05/10 00:26:03;;;;;;;0.90;0.77;;;14.50;99.90;;;;;;5139176;27;20027;-72
2023/05/10 00:28:29;;;;;;;0.40;0.40;;;14.40;99.90;;;;;;5139928;27;20040;-72
2023/05/10 00:30:55;;;;;;;1.00;0.50;;;14.30;99.90;;;;;;5140355;27;20027;-73
2023/05/10 00:33:20;;;;;;;0.73;0.40;;;14.30;99.90;;;;;;5140758;27;20023;-73
2023/05/10 00:35:46;;;;;;;1.25;0.32;;;14.20;99.90;;;;;;5139937;27;20061;-74
2023/05/10 00:38:12;;;;;;;0.43;0.32;;;14.00;99.90;;;;;;5139930;27;20015;-74
2023/05/10 00:40:37;;;;;;;0.20;0.20;;;14.10;99.90;;;;;;5140156;27;20019;-72
2023/05/10 00:43:03;;;;;;;1.95;0.22;;;14.00;99.90;;;;;;5140031;27;20050;-72
2023/05/10 00:45:30;;;;;;;1.17;0.15;;;14.00;99.90;;;;;;5140873;27;20031;-74
2023/05/10 00:47:56;;;;;;;0.70;0.30;;;13.90;99.90;;;;;;5140407;27;20084;-72
2023/05/10 00:50:23;;;;;;;2.78;0.30;;;13.90;99.90;;;;;;5139672;27;20023;-72
2023/05/10 00:52:49;;;;;;;0.60;0.40;;;14.00;99.90;;;;;;5139398;27;20019;-74
2023/05/10 00:55:14;;;;;;;1.25;0.50;;;13.90;99.90;;;;;;5140388;27;20056;-72
2023/05/10 00:57:40;;;;;;;1.85;0.30;;;13.90;99.90;;;;;;5139382;27;20019;-72
2023/05/10 01:00:07;;;;;;;0.88;0.25;;;13.90;99.90;;;;;;5139492;27;20068;-72
2023/05/10 01:02:34;;;;;;;3.78;0.32;;;13.90;99.90;;;;;;5140056;27;20087;-73
2023/05/10 01:05:01;;;;;;;3.88;0.40;;;13.90;99.90;;;;;;5139702;27;20023;-74
2023/05/10 01:07:26;;;;;;;0.60;0.50;;;13.90;99.90;;;;;;5139097;27;20036;-74
2023/05/10 01:09:52;;;;;;;6.80;0.57;;;14.00;99.90;;;;;;5139400;27;20023;-74
2023/05/10 01:12:18;;;;;;;0.40;0.40;;;14.00;99.90;;;;;;5139896;27;20023;-74
2023/05/10 01:14:43;;;;;;;1.65;0.30;;;14.00;99.90;;;;;;5139158;27;20031;-72
2023/05/10 01:17:10;;;;;;;1.45;0.30;;;14.00;99.90;;;;;;5139199;27;20025;-73
2023/05/10 01:19:37;;;;;;;3.60;0.75;;;14.00;99.90;;;;;;5139150;27;20058;-73
2023/05/10 01:22:40;;;;;;;1.83;0.60;;;14.00;99.90;;;;;;5139181;27;20022;-72
2023/05/10 01:25:31;;;;;;;0.25;0.20;;;14.00;99.90;;;;;;5138859;27;20023;-72
2023/05/10 01:28:12;;;;;;;0.20;0.20;;;14.00;99.90;;;;;;5140005;27;20110;-72
2023/05/10 01:31:09;;;;;;;0.88;0.17;;;13.90;99.90;;;;;;5139969;27;20138;-72
2023/05/10 01:33:56;;;;;;;1.30;0.40;;;13.80;99.90;;;;;;5139818;27;20023;-72
2023/05/10 01:37:19;;;;;;;3.60;0.25;;;13.70;99.90;;;;;;5139614;27;20076;-72
2023/05/10 01:39:51;;;;;;;0.98;0.22;;;13.80;99.90;;;;;;5129704;27;20045;-72
2023/05/10 01:42:21;;;;;;;0.30;0.30;;;13.80;99.90;;;;;;5138580;27;20051;-74
2023/05/10 01:45:07;;;;;;;0.28;0.20;;;13.90;99.90;;;;;;5138594;27;20020;-74
2023/05/10 01:47:32;;;;;;;0.22;0.20;;;13.90;99.90;;;;;;5138369;27;20019;-74
2023/05/10 01:50:01;;;;;;;0.40;0.30;;;13.90;99.90;;;;;;5138364;27;20044;-75
2023/05/10 01:52:36;;;;;;;2.42;0.40;;;13.90;99.90;;;;;;5139254;27;20019;-73
2023/05/10 01:55:05;;;;;;;0.25;0.25;;;13.90;99.90;;;;;;5138656;27;20019;-73
2023/05/10 01:57:37;;;;;;;0.50;0.28;;;13.90;99.90;;;;;;5138192;27;20019;-72
2023/05/10 02:00:04;;;;;;;0.40;0.40;;;13.90;99.90;;;;;;5138984;27;20019;-72
2023/05/10 02:02:35;;;;;;;0.50;0.40;;;13.90;99.90;;;;;;5138186;27;20019;-72
2023/05/10 02:05:03;;;;;;;0.57;0.57;;;13.90;99.90;;;;;;5138501;27;20115;-72
2023/05/10 02:07:29;;;;;;;2.15;0.50;;;13.90;99.90;;;;;;5138457;27;20139;-72
2023/05/10 02:09:55;;;;;;;0.40;0.40;;;13.90;99.90;;;;;;5138547;27;20034;-72
2023/05/10 02:12:23;;;;;;;5.22;0.70;;;13.90;99.90;;;;;;5138031;27;20027;-72
2023/05/10 02:14:50;;;;;;;0.40;0.30;;;13.90;99.90;;;;;;5138395;27;20069;-72
2023/05/10 02:17:17;;;;;;;1.30;0.52;;;13.90;99.90;;;;;;5138495;27;20020;-72
2023/05/10 02:19:45;;;;;;;1.08;0.60;;;13.90;99.90;;;;;;5139407;27;20023;-74
2023/05/10 02:22:11;;;;;;;1.02;0.50;;;13.90;99.90;;;;;;5140776;27;20054;-73
2023/05/10 02:24:38;;;;;;;0.80;0.60;;;13.90;99.90;;;;;;5138106;27;20026;-73
2023/05/10 02:27:05;;;;;;;0.40;0.40;;;13.90;99.90;;;;;;5138882;27;20027;-73
2023/05/10 02:29:32;;;;;;;2.88;0.38;;;13.80;99.90;;;;;;5137718;27;20023;-73
2023/05/10 02:31:59;;;;;;;0.43;0.35;;;13.80;99.90;;;;;;5138590;27;20054;-73
2023/05/10 02:34:28;;;;;;;2.67;0.60;;;13.80;99.90;;;;;;5137680;27;20034;-73
2023/05/10 02:36:55;;;;;;;0.80;0.50;;;13.80;99.90;;;;;;5138021;27;20031;-73
2023/05/10 02:39:21;;;;;;;0.43;0.30;;;13.70;99.90;;;;;;5137890;27;20043;-74
2023/05/10 02:41:48;;;;;;;0.38;0.22;;;13.80;99.90;;;;;;5137681;27;20060;-73
2023/05/10 02:44:19;;;;;;;0.63;0.35;;;13.80;99.90;;;;;;5139192;27;20034;-73
2023/05/10 02:46:45;;;;;;;0.57;0.50;;;13.80;99.90;;;;;;5137454;27;20034;-72
2023/05/10 02:49:10;;;;;;;1.70;0.50;;;13.80;99.90;;;;;;5137372;27;20072;-73
2023/05/10 02:51:40;;;;;;;1.25;0.40;;;13.80;99.90;;;;;;5137397;27;20019;-74
2023/05/10 02:54:17;;;;;;;0.32;0.22;;;13.80;99.90;;;;;;5137875;27;20051;-75
2023/05/10 02:56:47;;;;;;;0.30;0.30;;;13.80;99.90;;;;;;5137702;27;20035;-73
2023/05/10 02:59:13;;;;;;;0.70;0.50;;;13.90;99.90;;;;;;5138501;27;20025;-74
2023/05/10 03:01:38;;;;;;;0.40;0.38;;;13.90;99.90;;;;;;5137503;27;20019;-73
2023/05/10 03:04:04;;;;;;;0.32;0.32;;;13.90;99.90;;;;;;5137516;28;20023;-72
2023/05/10 03:06:30;;;;;;;0.40;0.32;;;13.90;99.90;;;;;;5137161;28;20058;-72
2023/05/10 03:08:56;;;;;;;0.30;0.28;;;13.80;99.90;;;;;;5137993;28;20072;-72
2023/05/10 03:11:39;;;;;;;0.70;0.30;;;13.80;99.90;;;;;;5137369;28;20019;-73
2023/05/10 03:14:23;;;;;;;2.65;0.32;;;13.90;99.90;;;;;;5137140;28;20027;-73
2023/05/10 03:17:07;;;;;;;0.60;0.40;;;13.90;99.90;;;;;;5137071;28;20031;-73
2023/05/10 03:20:07;;;;;;;1.25;0.50;;;13.80;99.90;;;;;;5138274;28;20106;-74
2023/05/10 03:22:38;;;;;;;0.90;0.52;;;13.80;99.90;;;;;;5136882;28;20027;-74
2023/05/10 03:25:08;;;;;;;9.15;0.88;;;13.80;99.90;;;;;;5119753;28;20134;-73
2023/05/10 03:27:36;;;;;;;0.73;0.52;;;13.80;99.90;;;;;;5119124;28;20027;-73
2023/05/10 03:30:02;;;;;;;2.72;0.65;;;13.80;99.90;;;;;;5136571;28;20106;-74
2023/05/10 03:32:31;;;;;;;2.33;0.57;;;13.80;99.90;;;;;;5136488;28;20039;-72
2023/05/10 03:34:57;;;;;;;1.02;0.82;;;13.80;99.90;;;;;;5119185;28;20023;-72
2023/05/10 03:37:22;;;;;;;1.67;0.60;;;13.80;99.90;;;;;;5119186;28;20085;-74
2023/05/10 03:39:48;;;;;;;1.55;0.80;;;13.80;99.90;;;;;;5119156;28;20027;-74
2023/05/10 03:42:13;;;;;;;2.35;0.88;;;13.80;99.90;;;;;;5119110;28;20023;-73
2023/05/10 03:44:39;;;;;;;1.33;0.73;;;13.80;99.90;;;;;;5136609;28;20031;-72
2023/05/10 03:47:05;;;;;;;1.02;0.80;;;13.80;99.90;;;;;;5118989;28;20023;-72
2023/05/10 03:49:30;;;;;;;1.42;0.95;;;13.80;99.90;;;;;;5119843;28;20023;-72
2023/05/10 03:51:56;;;;;;;2.35;1.27;;;13.80;99.90;;;;;;5136396;28;20039;-74
2023/05/10 03:54:21;;;;;;;2.10;1.10;;;13.80;99.90;;;;;;5119083;28;20023;-74
2023/05/10 03:56:49;;;;;;;2.28;1.50;;;13.80;99.90;;;;;;5119556;28;20050;-72
2023/05/10 03:59:15;;;;;;;1.58;1.13;;;13.80;99.90;;;;;;5136408;28;20076;-72
2023/05/10 04:01:40;;;;;;;4.95;1.40;;;13.70;99.90;;;;;;5138872;27;20023;-72
2023/05/10 04:04:06;;;;;;;1.15;0.95;;;13.70;99.90;;;;;;5140596;27;20035;-74
2023/05/10 04:06:32;;;;;;;1.58;1.23;;;13.70;99.90;;;;;;5140378;27;20031;-74
2023/05/10 04:08:59;;;;;;;1.50;1.38;;;13.70;99.90;;;;;;5141292;27;20092;-72
2023/05/10 04:11:25;;;;;;;4.22;1.58;;;13.70;99.90;;;;;;5140463;27;20023;-72
2023/05/10 04:13:50;;;;;;;1.83;0.88;;;13.80;99.90;;;;;;5140311;27;20052;-72
2023/05/10 04:16:16;;;;;;;3.03;1.30;;;13.70;99.90;;;;;;5140238;27;20030;-74
2023/05/10 04:18:42;;;;;;;3.00;1.30;;;13.70;99.90;;;;;;5140083;27;20015;-74
2023/05/10 04:21:14;;;;;;;1.77;1.08;;;13.70;99.90;;;;;;5141365;27;20054;-72
2023/05/10 04:23:40;;;;;;;1.23;1.10;;;13.60;99.90;;;;;;5141241;27;20022;-72
2023/05/10 04:26:06;;;;;;;1.63;1.02;;;13.60;99.90;;;;;;5140000;27;20026;-72
2023/05/10 04:28:32;;;;;;;1.98;1.23;;;13.70;99.90;;;;;;5140668;27;20027;-72
2023/05/10 04:31:06;;;;;;;1.77;1.02;;;13.60;99.90;;;;;;5141014;27;20026;-72
2023/05/10 04:33:32;;;;;;;2.17;1.35;;;13.60;99.90;;;;;;5141049;27;20030;-74
2023/05/10 04:35:57;;;;;;;3.58;1.80;;;13.60;99.90;;;;;;5140751;27;20030;-72
2023/05/10 04:38:23;;;;;;;6.70;1.92;;;13.60;99.90;;;;;;5140311;27;20015;-72
2023/05/10 04:40:49;;;;;;;4.22;1.95;;;13.60;99.90;;;;;;5139757;27;20083;-73
2023/05/10 04:43:14;;;;;;;3.95;2.17;;;13.60;99.90;;;;;;5140100;27;20042;-73
2023/05/10 04:45:40;;;;;;;7.93;2.97;;;13.60;99.90;;;;;;5139619;27;20076;-74
2023/05/10 04:48:05;;;;;;;5.15;3.03;;;13.60;99.90;;;;;;5139765;27;20043;-74
2023/05/10 04:50:31;;;;;;;6.85;2.60;;;13.60;99.90;;;;;;5139645;27;20035;-74
2023/05/10 04:52:57;;;;;;;5.45;2.30;;;13.70;99.90;;;;;;5139588;27;20023;-72
2023/05/10 04:55:22;;;;;;;2.70;2.25;;;13.70;99.90;;;;;;5139617;27;20030;-72
2023/05/10 04:57:48;;;;;;;6.85;3.00;;;13.70;99.90;;;;;;5140526;27;20023;-74
2023/05/10 05:00:14;;;;;;;5.13;2.20;;;13.80;99.90;;;;;;5139899;27;20019;-74
2023/05/10 05:02:43;;;;;;;4.82;3.20;;;13.80;99.90;;;;;;5139800;27;20023;-74
2023/05/10 05:05:09;;;;;;;3.60;2.10;;;13.80;99.90;;;;;;5139418;27;20023;-73
2023/05/10 05:07:34;;;;;;;3.38;2.00;;;13.80;99.90;;;;;;5139135;27;20045;-73
2023/05/10 05:10:00;;;;;;;3.40;2.10;;;13.90;99.90;;;;;;5139538;27;20033;-73
2023/05/10 05:12:25;;;;;;;4.85;2.75;;;13.90;99.90;;;;;;5139676;27;20020;-73
2023/05/10 05:14:51;;;;;;;4.55;2.75;;;13.90;99.90;;;;;;5139601;27;20029;-72
2023/05/10 05:17:16;;;;;;;5.35;2.40;;;13.80;99.90;;;;;;5140049;27;20015;-72
2023/05/10 05:19:42;;;;;;;3.05;2.15;;;13.80;99.90;;;;;;5139424;27;20015;-72
2023/05/10 05:22:08;;;;;;;7.13;1.95;;;13.80;99.90;;;;;;5139249;27;20019;-72
2023/05/10 05:24:37;;;;;;;6.60;2.78;;;13.90;99.90;;;;;;5138946;27;20167;-72
2023/05/10 05:27:03;;;;;;;4.28;2.58;;;14.00;99.90;;;;;;5139753;27;20015;-72
2023/05/10 05:29:29;;;;;;;4.18;2.22;;;14.00;99.90;;;;;;5139786;27;20030;-73
2023/05/10 05:31:55;;;;;;;5.25;2.13;;;14.10;99.90;;;;;;5139846;27;20027;-73
2023/05/10 05:34:21;;;;;;;6.70;2.00;;;14.10;99.90;;;;;;5138886;27;20027;-73
2023/05/10 05:36:47;;;;;;;1.63;1.20;;;14.10;99.90;;;;;;5138842;27;20034;-73
2023/05/10 05:39:13;;;;;;;4.25;1.17;;;14.10;99.90;;;;;;5139731;27;20113;-73
2023/05/10 05:41:38;;;;;;;1.25;1.10;;;14.20;99.90;;;;;;5139690;27;20025;-72
2023/05/10 05:44:04;;;;;;;3.78;1.50;;;14.20;99.90;;;;;;5139950;27;20023;-73
2023/05/10 05:46:29;;;;;;;3.83;1.10;;;14.20;99.90;;;;;;5139723;27;20027;-72
2023/05/10 05:48:55;;;;;;;1.73;1.20;;;14.20;99.90;;;;;;5138854;27;20063;-72
2023/05/10 05:51:20;;;;;;;2.30;1.50;;;14.30;99.90;;;;;;5138692;27;20110;-72
2023/05/10 05:53:46;;;;;;;2.50;1.30;;;14.20;99.90;;;;;;5139213;27;20099;-73
2023/05/10 05:56:11;;;;;;;2.17;1.67;;;14.20;99.90;;;;;;5138966;27;20019;-73
2023/05/10 05:58:37;;;;;;;2.85;1.35;;;14.20;99.90;;;;;;5138378;27;20015;-73
2023/05/10 06:01:02;;;;;;;1.63;1.17;;;14.20;99.90;;;;;;5138653;27;20072;-73
2023/05/10 06:03:28;;;;;;;1.58;1.17;;;14.30;99.90;;;;;;5138508;27;20019;-72
2023/05/10 06:05:54;;;;;;;4.93;1.60;;;14.30;99.90;;;;;;5138220;27;20080;-72
2023/05/10 06:08:20;;;;;;;1.95;1.35;;;14.30;99.90;;;;;;5123661;22;20167;-77
2023/05/10 06:10:45;;;;;;;2.72;1.25;;;14.30;99.90;;;;;;5097919;28;20028;-76
2023/05/10 06:13:11;;;;;;;4.88;1.20;;;14.30;99.90;;;;;;5097065;28;20046;-76
2023/05/10 06:15:37;;;;;;;1.30;1.20;;;14.30;99.90;;;;;;5097362;28;20031;-77
2023/05/10 06:18:02;;;;;;;4.55;1.00;;;14.30;99.90;;;;;;5082053;28;20027;-76
2023/05/10 06:20:28;;;;;;;1.92;0.90;;;14.30;99.90;;;;;;5076678;28;20028;-76
2023/05/10 06:22:54;;;;;;;1.83;1.10;;;14.40;99.90;;;;;;5076845;28;20024;-77
2023/05/10 06:25:19;;;;;;;1.98;1.10;;;14.40;99.90;;;;;;5076311;28;20021;-76
2023/05/10 06:27:45;;;;;;;1.30;1.20;;;14.40;99.90;;;;;;5076434;28;20035;-76
2023/05/10 06:30:13;;;;;;;2.03;1.02;;;14.50;99.90;;;;;;5076535;28;20021;-76
2023/05/10 06:32:38;;;;;;;2.95;1.50;;;14.50;99.90;;;;;;5077692;28;20025;-78
2023/05/10 06:35:04;;;;;;;3.28;1.80;;;14.60;99.90;;;;;;5076418;28;20121;-77
2023/05/10 06:37:30;;;;;;;1.98;0.70;;;14.60;99.90;;;;;;5076361;28;20081;-78
2023/05/10 06:39:55;;;;;;;0.60;0.60;;;14.60;99.90;;;;;;5076530;28;20017;-78
2023/05/10 06:42:21;;;;;;;1.38;1.00;;;14.60;99.90;;;;;;5076566;28;20025;-76
2023/05/10 06:44:46;;;;;;;0.93;0.80;;;14.60;99.90;;;;;;5076493;28;20111;-77
2023/05/10 06:47:12;;;;;;;0.70;0.60;;;14.60;99.90;;;;;;5076176;28;20035;-78
2023/05/10 06:49:38;;;;;;;1.77;0.68;;;14.60;99.90;;;;;;5076498;28;20029;-79
2023/05/10 06:52:03;;;;;;;1.45;0.88;;;14.60;99.90;;;;;;5076929;28;20103;-78
2023/05/10 06:54:29;;;;;;;1.98;0.80;;;14.60;99.90;;;;;;5077313;28;20028;-76
2023/05/10 06:56:55;;;;;;;1.58;1.00;;;14.60;99.90;;;;;;5075987;28;20088;-79
2023/05/10 06:59:21;;;;;;;1.67;1.20;;;14.70;99.90;;;;;;5076218;28;20029;-78
2023/05/10 07:01:47;;;;;;;3.25;1.08;;;14.70;99.90;;;;;;5076331;28;20043;-78
2023/05/10 07:04:13;;;;;;;2.90;1.45;;;14.80;99.90;;;;;;5076180;28;20020;-78
2023/05/10 07:06:38;;;;;;;2.22;1.05;;;14.90;99.90;;;;;;5076420;28;20090;-78
2023/05/10 07:09:04;;;;;;;2.00;1.25;;;14.90;99.90;;;;;;5076003;28;20024;-78
2023/05/10 07:11:30;;;;;;;6.13;1.33;;;15.00;99.90;;;;;;5076954;28;20032;-77
2023/05/10 07:13:55;;;;;;;1.50;1.30;;;15.00;99.90;;;;;;5076053;28;20027;-78
2023/05/10 07:16:21;;;;;;;2.20;1.50;;;15.00;99.90;;;;;;5077100;28;20032;-75
2023/05/10 07:18:46;;;;;;;2.65;1.35;;;15.00;99.90;;;;;;5077114;28;20025;-75
2023/05/10 07:21:12;;;;;;;1.10;1.00;;;15.00;99.90;;;;;;5077081;28;20021;-75
2023/05/10 07:23:37;;;;;;;3.95;1.63;;;15.00;99.90;;;;;;5076402;28;20040;-75
2023/05/10 07:26:03;;;;;;;3.35;1.52;;;15.00;99.90;;;;;;5076667;28;20032;-76
2023/05/10 07:28:29;;;;;;;3.35;1.77;;;15.00;99.90;;;;;;5075986;28;20020;-75
2023/05/10 07:30:54;;;;;;;3.60;1.65;;;15.00;99.90;;;;;;5076048;28;20028;-75
2023/05/10 07:33:20;;;;;;;3.97;1.38;;;15.10;99.90;;;;;;5076377;28;20031;-75
2023/05/10 07:35:45;;;;;;;2.15;1.33;;;15.10;99.90;;;;;;5079009;28;20035;-75
2023/05/10 07:38:11;;;;;;;5.28;1.60;;;15.10;99.90;;;;;;5081124;28;20084;-75
2023/05/10 07:40:38;;;;;;;3.60;1.73;;;15.10;99.90;;;;;;5080655;28;20025;-75
2023/05/10 07:43:03;;;;;;;2.92;1.40;;;15.20;99.90;;;;;;5079751;28;20031;-75
2023/05/10 07:45:29;;;;;;;2.28;1.60;;;15.30;99.90;;;;;;5079641;28;20029;-75
2023/05/10 07:47:55;;;;;;;2.15;1.55;;;15.40;99.90;;;;;;5079827;28;20020;-75
2023/05/10 07:50:21;;;;;;;4.20;1.60;;;15.40;99.90;;;;;;5080179;28;20075;-75
2023/05/10 07:52:47;;;;;;;4.18;1.55;;;15.50;99.90;;;;;;5080522;28;20041;-75
2023/05/10 07:55:13;;;;;;;2.20;1.48;;;15.50;99.90;;;;;;5080679;28;20021;-75
2023/05/10 07:57:39;;;;;;;4.75;1.25;;;15.60;99.90;;;;;;5080162;28;20037;-75
2023/05/10 08:00:05;;;;;;;1.20;1.10;;;15.60;99.90;;;;;;5080182;28;20017;-75
2023/05/10 08:02:31;;;;;;;1.38;1.20;;;15.60;99.90;;;;;;5080144;28;20032;-75
2023/05/10 08:04:56;;;;;;;1.67;1.50;;;15.60;99.90;;;;;;5080327;28;20069;-75
2023/05/10 08:07:24;;;;;;;1.55;1.10;;;15.60;99.90;;;;;;5080393;28;20032;-75
2023/05/10 08:09:49;;;;;;;2.75;1.02;;;15.70;99.90;;;;;;5079485;28;20017;-75
2023/05/10 08:12:15;;;;;;;2.95;1.17;;;15.70;99.90;;;;;;5080119;28;20039;-75
2023/05/10 08:14:41;;;;;;;1.27;1.10;;;15.70;99.90;;;;;;5079152;28;20028;-75
2023/05/10 08:17:06;;;;;;;1.60;1.27;;;15.70;99.90;;;;;;5079147;28;20024;-75
2023/05/10 08:19:32;;;;;;;6.30;1.45;;;15.80;99.90;;;;;;5078919;28;20024;-75
2023/05/10 08:21:57;;;;;;;1.52;1.02;;;15.70;99.90;;;;;;5080467;28;20024;-75
2023/05/10 08:24:23;;;;;;;1.85;1.13;;;15.80;99.90;;;;;;5078962;28;20025;-75
2023/05/10 08:26:48;;;;;;;2.38;1.13;;;15.80;99.90;;;;;;5078976;28;20047;-75
2023/05/10 08:29:14;;;;;;;1.40;1.20;;;15.80;99.90;;;;;;5078767;28;20016;-75
2023/05/10 08:31:40;;;;;;;3.72;1.58;;;15.80;99.90;;;;;;5079776;28;20021;-75
2023/05/10 08:34:05;;;;;;;1.48;1.33;;;15.90;99.90;;;;;;5079990;28;20081;-75
2023/05/10 08:36:31;;;;;;;3.10;0.90;;;16.00;99.90;;;;;;5079518;28;20046;-75
2023/05/10 08:38:57;;;;;;;9.68;1.45;;;16.00;99.90;;;;;;5079545;28;20107;-75
2023/05/10 08:41:25;;;;;;;8.43;1.48;;;16.00;99.90;;;;;;5078483;28;20120;-75
2023/05/10 08:43:51;;;;;;;1.83;0.98;;;16.10;99.90;;;;;;5079558;28;20025;-75
2023/05/10 08:46:19;;;;;;;2.00;1.40;;;16.20;99.90;;;;;;5078889;28;20021;-75
2023/05/10 08:48:46;;;;;;;1.63;1.08;;;16.30;99.90;;;;;;5078376;28;20052;-75
2023/05/10 08:51:17;;;;;;;5.03;1.20;;;16.20;99.90;;;;;;5078375;28;20044;-75
2023/05/10 08:53:44;;;;;;;1.70;1.27;;;16.20;99.90;;;;;;5078306;28;20103;-75
2023/05/10 08:56:10;;;;;;;2.30;1.42;;;16.10;99.90;;;;;;5079143;28;20025;-75
2023/05/10 08:58:36;;;;;;;3.53;1.40;;;16.10;99.90;;;;;;5078334;28;20032;-75
2023/05/10 09:01:03;;;;;;;1.48;1.30;;;16.00;99.90;;;;;;5079213;28;20060;-76
2023/05/10 09:03:29;;;;;;;4.63;2.20;;;15.90;99.90;;;;;;5078721;28;20024;-75
2023/05/10 09:05:55;;;;;;;4.25;1.77;;;15.80;99.90;;;;;;5078609;28;20039;-75
2023/05/10 09:08:25;;;;;;;3.97;1.88;;;15.60;99.90;;;;;;5077991;28;20105;-75
2023/05/10 09:10:51;;;;;;;2.78;1.50;;;15.30;99.90;;;;;;5078815;28;20024;-76
2023/05/10 09:13:17;;;;;;;4.00;1.98;;;15.00;99.90;;;;;;5078078;28;20024;-76
2023/05/10 09:15:44;;;;;;;2.80;1.88;;;14.80;99.90;;;;;;5078903;28;20020;-75
2023/05/10 09:18:10;;;;;;;8.40;2.35;;;14.80;99.90;;;;;;5078224;28;20016;-76
2023/05/10 09:20:35;;;;;;;7.55;2.40;;;14.80;99.90;;;;;;5078343;28;20021;-76
2023/05/10 09:23:01;;;;;;;3.88;1.73;;;14.90;99.90;;;;;;5078628;28;20086;-77
2023/05/10 09:25:26;;;;;;;3.55;1.50;;;14.90;99.90;;;;;;5077607;28;20028;-76
2023/05/10 09:27:52;;;;;;;3.95;1.60;;;14.80;99.90;;;;;;5077626;28;20059;-77
2023/05/10 09:30:26;;;;;;;1.65;1.20;;;14.80;99.90;;;;;;5078014;28;20050;-76
2023/05/10 09:32:53;;;;;;;7.35;3.15;;;14.70;99.90;;;;;;5077939;28;20021;-76
2023/05/10 09:35:24;;;;;;;3.13;1.33;;;14.70;99.90;;;;;;5077472;28;20025;-76
2023/05/10 09:37:51;;;;;;;3.00;1.67;;;14.60;99.90;;;;;;5077531;28;20031;-76
2023/05/10 09:40:19;;;;;;;3.58;1.90;;;14.60;99.90;;;;;;5077631;28;20035;-76
2023/05/10 09:42:57;;;;;;;2.67;1.65;;;14.70;99.90;;;;;;5079042;28;20020;-76
2023/05/10 09:45:24;;;;;;;4.45;1.40;;;14.70;99.90;;;;;;5077315;28;20025;-76
2023/05/10 09:47:50;;;;;;;5.22;2.20;;;14.70;99.90;;;;;;5077577;28;20052;-76
2023/05/10 09:50:16;;;;;;;4.03;1.70;;;14.80;99.90;;;;;;5078421;28;20059;-76
2023/05/10 09:53:02;;;;;;;3.85;2.20;;;15.00;99.90;;;;;;5078510;28;20024;-76
2023/05/10 09:55:40;;;;;;;4.80;2.13;;;15.10;99.90;;;;;;5078106;28;20067;-76
2023/05/10 09:58:09;;;;;;;2.63;1.58;;;15.10;99.90;;;;;;5077488;28;20029;-76
2023/05/10 10:00:40;;;;;;;3.50;1.98;;;15.20;99.90;;;;;;5076902;28;20025;-76
2023/05/10 10:03:11;;;;;;;5.10;2.17;;;15.20;99.90;;;;;;5077137;28;20031;-75
2023/05/10 10:05:40;;;;;;;3.38;2.10;;;15.20;99.90;;;;;;5077065;28;20024;-76
2023/05/10 10:08:06;;;;;;;3.80;1.73;;;15.20;99.90;;;;;;5076834;28;20044;-76
2023/05/10 10:10:33;;;;;;;2.53;1.92;;;15.20;99.90;;;;;;5078137;28;20016;-76
2023/05/10 10:12:59;;;;;;;3.13;1.85;;;15.20;99.90;;;;;;5078067;28;20025;-76
2023/05/10 10:15:25;;;;;;;4.43;2.15;;;15.30;99.90;;;;;;5078010;28;20104;-75
2023/05/10 10:17:51;;;;;;;4.57;2.30;;;15.20;99.90;;;;;;5076714;28;20055;-76
2023/05/10 10:20:19;;;;;;;6.13;2.40;;;15.20;99.90;;;;;;5076728;28;20042;-75
2023/05/10 10:22:45;;;;;;;3.92;1.55;;;15.10;99.90;;;;;;5077728;28;20027;-76
2023/05/10 10:25:12;;;;;;;4.15;1.30;;;15.20;99.90;;;;;;5076740;28;20029;-75
2023/05/10 10:27:53;;;;;;;2.80;1.10;;;15.30;99.90;;;;;;5076838;28;20036;-75
2023/05/10 10:30:46;;;;;;;2.55;1.50;;;15.30;99.90;;;;;;5077472;28;20020;-76
2023/05/10 10:33:42;;;;;;;4.65;1.55;;;15.30;99.90;;;;;;5077318;28;20025;-76
2023/05/10 10:36:08;;;;;;;2.38;1.30;;;15.30;99.90;;;;;;5076511;28;20035;-76
2023/05/10 10:38:38;;;;;;;1.77;1.20;;;15.40;99.90;;;;;;5076792;28;20020;-76
2023/05/10 10:41:26;;;;;;;3.47;1.30;;;15.50;99.90;;;;;;5076536;28;20135;-76
2023/05/10 10:44:30;;;;;;;2.92;1.60;;;15.50;99.90;;;;;;5077330;28;20040;-77
2023/05/10 10:47:00;;;;;;;2.67;2.03;;;15.50;99.90;;;;;;5077187;28;20043;-77
2023/05/10 10:49:26;;;;;;;3.63;2.20;;;15.50;99.90;;;;;;5077106;28;20044;-77
2023/05/10 10:52:14;;;;;;;6.40;2.20;;;15.50;99.90;;;;;;5077269;28;20078;-77
2023/05/10 10:54:41;;;;;;;3.65;2.20;;;15.50;99.90;;;;;;5076372;28;20052;-77
2023/05/10 10:57:12;;;;;;;5.53;2.65;;;15.60;99.90;;;;;;5076182;28;20086;-76
2023/05/10 10:59:44;;;;;;;5.13;2.80;;;15.70;99.90;;;;;;5077203;28;20104;-76
2023/05/10 11:02:10;;;;;;;4.00;2.95;;;15.70;99.90;;;;;;5076635;28;20115;-76
2023/05/10 11:04:46;;;;;;;3.58;2.55;;;15.70;99.90;;;;;;5076133;28;20138;-76
2023/05/10 11:07:22;;;;;;;6.40;3.10;;;15.80;99.90;;;;;;5076224;28;20107;-76
2023/05/10 11:09:48;;;;;;;7.18;4.80;;;15.90;99.90;;;;;;5078682;28;20028;-76
2023/05/10 11:12:13;;;;;;;9.15;4.40;;;15.90;99.90;;;;;;5083571;28;20016;-76
2023/05/10 11:14:40;;;;;;;5.70;3.55;;;15.80;99.90;;;;;;5083836;28;20060;-76
2023/05/10 11:17:26;;;;;;;7.20;3.85;;;15.90;99.90;;;;;;5083362;28;20025;-76
2023/05/10 11:20:13;;;;;;;6.50;3.75;;;15.90;99.90;;;;;;5082649;28;20039;-76
2023/05/10 11:23:12;;;;;;;6.45;4.45;;;16.00;99.90;;;;;;5083501;28;20025;-76
2023/05/10 11:25:43;;;;;;;7.90;4.20;;;16.00;99.90;;;;;;5082548;28;20093;-77
2023/05/10 11:28:10;;;;;;;6.57;3.95;;;16.00;99.90;;;;;;5082907;28;20031;-76
2023/05/10 11:30:37;;;;;;;6.65;3.55;;;15.90;99.90;;;;;;5082539;28;20111;-76
2023/05/10 11:33:03;;;;;;;6.72;3.72;;;15.60;99.90;;;;;;5082624;28;20024;-76
2023/05/10 11:35:28;;;;;;;9.38;4.40;;;15.50;99.90;;;;;;5082627;28;20062;-76
2023/05/10 11:37:54;;;;;;;10.73;4.25;;;15.50;99.90;;;;;;5083173;28;20310;-76
2023/05/10 11:40:24;;;;;;;6.60;4.20;;;15.50;99.90;;;;;;5082533;28;20021;-76
2023/05/10 11:42:50;;;;;;;6.32;3.60;;;15.70;99.90;;;;;;5083384;28;20016;-76
2023/05/10 11:45:16;;;;;;;7.05;3.97;;;15.60;99.90;;;;;;5082377;28;20032;-76
2023/05/10 11:47:43;;;;;;;7.63;4.03;;;15.60;99.90;;;;;;5082914;28;20028;-76
2023/05/10 11:50:10;;;;;;;5.75;3.22;;;15.60;99.90;;;;;;5084701;28;20070;-76
2023/05/10 11:52:39;;;;;;;6.45;3.33;;;15.70;99.90;;;;;;5083034;28;20029;-76
2023/05/10 11:55:05;;;;;;;3.50;2.67;;;15.80;99.90;;;;;;5083189;28;20017;-76
2023/05/10 11:57:31;;;;;;;2.75;1.83;;;15.70;99.90;;;;;;5082333;28;20052;-76
2023/05/10 11:59:57;;;;;;;3.47;2.30;;;15.80;99.90;;;;;;5082573;28;20017;-76
2023/05/10 12:02:23;;;;;;;4.35;1.77;;;15.70;99.90;;;;;;5082563;28;20020;-76
2023/05/10 12:04:49;;;;;;;1.90;1.58;;;15.70;99.90;;;;;;5082417;28;20020;-76
2023/05/10 12:07:16;;;;;;;2.75;1.63;;;15.70;99.90;;;;;;5122137;22;20027;-72
2023/05/10 12:10:01;;;;;;;4.70;1.55;;;15.60;99.90;;;;;;5143633;27;20064;-72
2023/05/10 12:12:27;;;;;;;4.35;1.92;;;15.60;99.90;;;;;;5143643;27;20031;-72
2023/05/10 12:14:52;;;;;;;2.83;1.58;;;15.60;99.90;;;;;;5143533;27;20015;-72
2023/05/10 12:17:18;;;;;;;6.20;2.40;;;15.60;99.90;;;;;;5136543;27;20028;-72
2023/05/10 12:19:43;;;;;;;2.65;2.25;;;15.60;99.90;;;;;;5124059;28;20024;-72
2023/05/10 12:22:09;;;;;;;3.45;2.17;;;15.60;99.90;;;;;;5119946;28;20019;-72
2023/05/10 12:24:38;;;;;;;3.00;1.58;;;15.60;99.90;;;;;;5119934;28;20020;-72
2023/05/10 12:27:12;;;;;;;2.38;1.60;;;15.80;99.90;;;;;;5120491;28;20016;-72
2023/05/10 12:29:43;;;;;;;3.05;1.45;;;15.90;99.90;;;;;;5119470;28;20023;-72
2023/05/10 12:32:09;;;;;;;3.83;1.70;;;15.90;99.90;;;;;;5119654;28;20027;-72
2023/05/10 12:34:38;;;;;;;2.50;1.90;;;15.90;99.90;;;;;;5119540;28;20032;-72
2023/05/10 12:37:04;;;;;;;4.57;1.83;;;16.10;99.90;;;;;;5119951;28;20031;-72
2023/05/10 12:39:44;;;;;;;2.45;1.60;;;16.10;99.90;;;;;;5119560;28;20020;-72
2023/05/10 12:42:10;;;;;;;1.83;1.33;;;16.10;99.90;;;;;;5119294;28;20061;-72
2023/05/10 12:44:36;;;;;;;4.30;2.40;;;16.10;99.90;;;;;;5120182;28;20031;-72
2023/05/10 12:47:01;;;;;;;2.75;1.40;;;16.00;99.90;;;;;;5120001;28;20027;-72
2023/05/10 12:49:27;;;;;;;3.70;2.03;;;16.00;99.90;;;;;;5119373;28;20127;-72
2023/05/10 12:51:52;;;;;;;4.75;1.27;;;16.00;99.90;;;;;;5119566;28;20106;-72
2023/05/10 12:54:18;;;;;;;3.30;1.73;;;16.00;99.90;;;;;;5119098;28;20019;-72